sensor_id;sensor_type;location;lat;lon;timestamp;pressure;altitude;pressure_sealevel;temperature;humidity
44531;BME280;30240;47.418;0.700;2023-03-21T00:02:24;100541.46728515625;;;9.36;80.27
44531;BME280;30240;47.418;0.700;2023-03-21T00:04:48;100541.74194335938;;;9.36;80.27
44531;BME280;30240;47.418;0.700;2023-03-21T00:07:13;100541.74194335938;;;9.36;80.27
44531;BME280;30240;47.418;0.700;2023-03-21T00:09:38;100542.40112304688;;;9.42;80.11
44531;BME280;30240;47.418;0.700;2023-03-21T00:12:04;100542.10815429688;;;9.43;80.03
44531;BME280;30240;47.418;0.700;2023-03-21T00:14:28;100537.95166015625;;;9.42;79.95
44531;BME280;30240;47.418;0.700;2023-03-21T00:16:53;100531.78100585938;;;9.49;79.74
44531;BME280;30240;47.418;0.700;2023-03-21T00:19:19;100531.78100585938;;;9.49;79.74
44531;BME280;30240;47.418;0.700;2023-03-21T00:21:43;100521.93603515625;;;9.53;79.28
44531;BME280;30240;47.418;0.700;2023-03-21T00:24:08;100525.67749023438;;;9.53;79.42
44531;BME280;30240;47.418;0.700;2023-03-21T00:26:34;100527.50244140625;;;9.58;79.47
44531;BME280;30240;47.418;0.700;2023-03-21T00:28:59;100527.685546875;;;9.54;79.53
44531;BME280;30240;47.418;0.700;2023-03-21T00:31:24;100529.06494140625;;;9.6;79.4
44531;BME280;30240;47.418;0.700;2023-03-21T00:33:49;100529.06494140625;;;9.6;79.4
44531;BME280;30240;47.418;0.700;2023-03-21T00:36:14;100531.89086914062;;;9.6;79.22
44531;BME280;30240;47.418;0.700;2023-03-21T00:38:38;100528.31420898438;;;9.56;79.36
44531;BME280;30240;47.418;0.700;2023-03-21T00:41:04;100529.52880859375;;;9.64;79.24
44531;BME280;30240;47.418;0.700;2023-03-21T00:43:29;100529.31518554688;;;9.6;79.31
44531;BME280;30240;47.418;0.700;2023-03-21T00:45:55;100529.31518554688;;;9.6;79.31
44531;BME280;30240;47.418;0.700;2023-03-21T00:48:19;100529.99877929688;;;9.6;79.22
44531;BME280;30240;47.418;0.700;2023-03-21T00:50:45;100526.13525390625;;;9.63;79.31
44531;BME280;30240;47.418;0.700;2023-03-21T00:53:09;100523.07739257812;;;9.6;79.29
44531;BME280;30240;47.418;0.700;2023-03-21T00:55:33;100524.92065429688;;;9.54;79.94
44531;BME280;30240;47.418;0.700;2023-03-21T00:57:59;100524.92065429688;;;9.54;79.94
44531;BME280;30240;47.418;0.700;2023-03-21T01:00:24;100522.0947265625;;;9.57;79.53
44531;BME280;30240;47.418;0.700;2023-03-21T01:02:49;100513.20190429688;;;9.54;79.67
44531;BME280;30240;47.418;0.700;2023-03-21T01:05:13;100507.92236328125;;;9.54;80.13
44531;BME280;30240;47.418;0.700;2023-03-21T01:07:38;100508.89282226562;;;9.49;79.92
44531;BME280;30240;47.418;0.700;2023-03-21T01:10:04;100508.89282226562;;;9.49;79.92
44531;BME280;30240;47.418;0.700;2023-03-21T01:12:29;100506.25;;;9.46;80.03
44531;BME280;30240;47.418;0.700;2023-03-21T01:14:53;100506.87255859375;;;9.47;79.94
44531;BME280;30240;47.418;0.700;2023-03-21T01:17:19;100506.01806640625;;;9.5;79.75
44531;BME280;30240;47.418;0.700;2023-03-21T01:19:44;100500.76293945312;;;9.53;79.15
44531;BME280;30240;47.418;0.700;2023-03-21T01:22:08;100500.76293945312;;;9.53;79.15
44531;BME280;30240;47.418;0.700;2023-03-21T01:24:34;100496.89331054688;;;9.7;79.27
44531;BME280;30240;47.418;0.700;2023-03-21T01:27:00;100494.59228515625;;;9.58;79.6
44531;BME280;30240;47.418;0.700;2023-03-21T01:29:23;100492.7490234375;;;9.58;79.36
44531;BME280;30240;47.418;0.700;2023-03-21T01:31:48;100483.45336914062;;;9.57;79.62
44531;BME280;30240;47.418;0.700;2023-03-21T01:34:14;100483.45336914062;;;9.57;79.62
44531;BME280;30240;47.418;0.700;2023-03-21T01:36:38;100476.98364257812;;;9.6;79.54
44531;BME280;30240;47.418;0.700;2023-03-21T01:39:04;100470.08056640625;;;9.56;79.74
44531;BME280;30240;47.418;0.700;2023-03-21T01:41:31;100471.7529296875;;;9.49;80.02
44531;BME280;30240;47.418;0.700;2023-03-21T01:43:54;100469.21997070312;;;9.43;80.09
44531;BME280;30240;47.418;0.700;2023-03-21T01:46:22;100469.21997070312;;;9.43;80.09
44531;BME280;30240;47.418;0.700;2023-03-21T01:48:43;100468.29833984375;;;9.44;80.17
44531;BME280;30240;47.418;0.700;2023-03-21T01:51:10;100457.92236328125;;;9.47;79.96
44531;BME280;30240;47.418;0.700;2023-03-21T01:53:35;100456.5185546875;;;9.5;79.97
44531;BME280;30240;47.418;0.700;2023-03-21T01:56:02;100456.8603515625;;;9.42;80.36
44531;BME280;30240;47.418;0.700;2023-03-21T01:58:24;100449.4140625;;;9.36;80.31
44531;BME280;30240;47.418;0.700;2023-03-21T02:00:50;100449.4140625;;;9.36;80.31
44531;BME280;30240;47.418;0.700;2023-03-21T02:03:13;100451.55639648438;;;9.38;80.33
44531;BME280;30240;47.418;0.700;2023-03-21T02:05:43;100448.15673828125;;;9.35;80.37
44531;BME280;30240;47.418;0.700;2023-03-21T02:05:49;100448.15673828125;;;9.35;80.37
44531;BME280;30240;47.418;0.700;2023-03-21T02:08:04;100446.533203125;;;9.35;80.97
44531;BME280;30240;47.418;0.700;2023-03-21T02:10:30;100444.39697265625;;;9.28;80.89
44531;BME280;30240;47.418;0.700;2023-03-21T02:12:54;100444.39697265625;;;9.28;80.89
44531;BME280;30240;47.418;0.700;2023-03-21T02:15:19;100437.53662109375;;;9.18;81.11
44531;BME280;30240;47.418;0.700;2023-03-21T02:17:48;100440.25268554688;;;9.15;81.31
44531;BME280;30240;47.418;0.700;2023-03-21T02:20:26;100438.70239257812;;;9.21;81.4
44531;BME280;30240;47.418;0.700;2023-03-21T02:20:39;100438.70239257812;;;9.21;81.4
44531;BME280;30240;47.418;0.700;2023-03-21T02:20:50;100438.70239257812;;;9.21;81.4
44531;BME280;30240;47.418;0.700;2023-03-21T02:20:59;100438.70239257812;;;9.21;81.4
44531;BME280;30240;47.418;0.700;2023-03-21T02:21:07;100438.70239257812;;;9.21;81.4
44531;BME280;30240;47.418;0.700;2023-03-21T02:22:45;100434.7900390625;;;9.22;81.47
44531;BME280;30240;47.418;0.700;2023-03-21T02:26:18;100434.7900390625;;;9.22;81.47
44531;BME280;30240;47.418;0.700;2023-03-21T02:26:28;100434.7900390625;;;9.22;81.47
44531;BME280;30240;47.418;0.700;2023-03-21T02:26:36;100434.7900390625;;;9.22;81.47
44531;BME280;30240;47.418;0.700;2023-03-21T02:27:24;100433.11767578125;;;9.14;81.59
44531;BME280;30240;47.418;0.700;2023-03-21T02:30:44;100433.28857421875;;;9.15;81.88
44531;BME280;30240;47.418;0.700;2023-03-21T02:31:04;100433.28857421875;;;9.15;81.88
44531;BME280;30240;47.418;0.700;2023-03-21T02:32:25;100430.18188476562;;;9.16;81.94
44531;BME280;30240;47.418;0.700;2023-03-21T02:32:33;100430.18188476562;;;9.16;81.94
44531;BME280;30240;47.418;0.700;2023-03-21T02:32:39;100430.18188476562;;;9.16;81.94
44531;BME280;30240;47.418;0.700;2023-03-21T02:32:49;100430.18188476562;;;9.16;81.94
44531;BME280;30240;47.418;0.700;2023-03-21T02:32:58;100430.18188476562;;;9.16;81.94
44531;BME280;30240;47.418;0.700;2023-03-21T02:34:45;100431.0302734375;;;9.03;82.21
44531;BME280;30240;47.418;0.700;2023-03-21T02:34:53;100431.0302734375;;;9.03;82.21
44531;BME280;30240;47.418;0.700;2023-03-21T02:37:06;100431.0302734375;;;9.03;82.21
44531;BME280;30240;47.418;0.700;2023-03-21T02:39:34;100423.27880859375;;;9.0;81.94
44531;BME280;30240;47.418;0.700;2023-03-21T02:39:41;100423.27880859375;;;9.0;81.94
44531;BME280;30240;47.418;0.700;2023-03-21T02:42:04;100425.46997070312;;;9.03;82.15
44531;BME280;30240;47.418;0.700;2023-03-21T02:44:22;100428.6865234375;;;9.01;82.16
44531;BME280;30240;47.418;0.700;2023-03-21T02:46:46;100425.341796875;;;8.97;82.44
44531;BME280;30240;47.418;0.700;2023-03-21T02:49:13;100425.341796875;;;8.97;82.44
44531;BME280;30240;47.418;0.700;2023-03-21T02:51:35;100425.341796875;;;8.88;82.53
44531;BME280;30240;47.418;0.700;2023-03-21T02:54:01;100422.71728515625;;;8.84;82.83
44531;BME280;30240;47.418;0.700;2023-03-21T02:56:24;100422.83325195312;;;8.84;82.8
44531;BME280;30240;47.418;0.700;2023-03-21T02:58:49;100423.10791015625;;;8.83;83.0
44531;BME280;30240;47.418;0.700;2023-03-21T03:01:13;100423.10791015625;;;8.83;83.0
44531;BME280;30240;47.418;0.700;2023-03-21T03:03:38;100421.39282226562;;;8.84;83.04
44531;BME280;30240;47.418;0.700;2023-03-21T03:06:08;100419.43969726562;;;8.85;82.89
44531;BME280;30240;47.418;0.700;2023-03-21T03:06:15;100419.43969726562;;;8.85;82.89
44531;BME280;30240;47.418;0.700;2023-03-21T03:08:34;100412.34130859375;;;8.83;82.89
44531;BME280;30240;47.418;0.700;2023-03-21T03:08:40;100412.34130859375;;;8.83;82.89
44531;BME280;30240;47.418;0.700;2023-03-21T03:11:02;100415.12451171875;;;8.83;82.93
44531;BME280;30240;47.418;0.700;2023-03-21T03:13:25;100415.12451171875;;;8.83;82.93
44531;BME280;30240;47.418;0.700;2023-03-21T03:15:50;100414.78271484375;;;8.76;83.09
44531;BME280;30240;47.418;0.700;2023-03-21T03:18:12;100412.46948242188;;;8.76;83.39
44531;BME280;30240;47.418;0.700;2023-03-21T03:18:18;100412.46948242188;;;8.76;83.39
44531;BME280;30240;47.418;0.700;2023-03-21T03:20:38;100410.38208007812;;;8.74;83.23
44531;BME280;30240;47.418;0.700;2023-03-21T03:23:06;100414.03198242188;;;8.73;83.48
44531;BME280;30240;47.418;0.700;2023-03-21T03:23:12;100414.03198242188;;;8.73;83.48
44531;BME280;30240;47.418;0.700;2023-03-21T03:25:27;100414.03198242188;;;8.73;83.48
44531;BME280;30240;47.418;0.700;2023-03-21T03:27:49;100408.09936523438;;;8.77;83.51
44531;BME280;30240;47.418;0.700;2023-03-21T03:30:14;100414.56298828125;;;8.69;83.29
44531;BME280;30240;47.418;0.700;2023-03-21T03:32:41;100413.86108398438;;;8.7;83.18
44531;BME280;30240;47.418;0.700;2023-03-21T03:35:04;100414.453125;;;8.67;83.21
44531;BME280;30240;47.418;0.700;2023-03-21T03:37:32;100411.83471679688;;;8.56;83.05
44531;BME280;30240;47.418;0.700;2023-03-21T03:39:57;100411.83471679688;;;8.56;83.05
44531;BME280;30240;47.418;0.700;2023-03-21T03:42:20;100415.06958007812;;;8.63;83.05
44531;BME280;30240;47.418;0.700;2023-03-21T03:44:44;100414.501953125;;;8.5;82.82
44531;BME280;30240;47.418;0.700;2023-03-21T03:47:10;100410.8154296875;;;8.48;83.2
44531;BME280;30240;47.418;0.700;2023-03-21T03:49:36;100412.82958984375;;;8.55;83.24
44531;BME280;30240;47.418;0.700;2023-03-21T03:52:02;100412.82958984375;;;8.55;83.24
44531;BME280;30240;47.418;0.700;2023-03-21T03:54:27;100417.38891601562;;;8.5;83.1
44531;BME280;30240;47.418;0.700;2023-03-21T03:56:49;100413.36059570312;;;8.52;82.91
44531;BME280;30240;47.418;0.700;2023-03-21T03:59:15;100420.0439453125;;;8.59;83.12
44531;BME280;30240;47.418;0.700;2023-03-21T04:01:38;100426.33056640625;;;8.6;82.8
44531;BME280;30240;47.418;0.700;2023-03-21T04:04:04;100426.33056640625;;;8.6;82.8
44531;BME280;30240;47.418;0.700;2023-03-21T04:06:28;100418.7255859375;;;8.65;82.75
44531;BME280;30240;47.418;0.700;2023-03-21T04:08:54;100417.7978515625;;;8.72;82.63
44531;BME280;30240;47.418;0.700;2023-03-21T04:11:18;100411.46850585938;;;8.66;82.47
44531;BME280;30240;47.418;0.700;2023-03-21T04:13:43;100413.42163085938;;;8.73;82.57
44531;BME280;30240;47.418;0.700;2023-03-21T04:16:09;100413.42163085938;;;8.73;82.57
44531;BME280;30240;47.418;0.700;2023-03-21T04:18:33;100410.87646484375;;;8.73;82.61
44531;BME280;30240;47.418;0.700;2023-03-21T04:20:58;100405.3466796875;;;8.79;82.67
44531;BME280;30240;47.418;0.700;2023-03-21T04:23:23;100396.47827148438;;;8.87;82.35
44531;BME280;30240;47.418;0.700;2023-03-21T04:25:48;100396.240234375;;;8.84;82.36
44531;BME280;30240;47.418;0.700;2023-03-21T04:28:13;100396.240234375;;;8.84;82.36
44531;BME280;30240;47.418;0.700;2023-03-21T04:30:38;100396.240234375;;;8.88;82.09
44531;BME280;30240;47.418;0.700;2023-03-21T04:33:04;100404.4921875;;;8.84;82.2
44531;BME280;30240;47.418;0.700;2023-03-21T04:35:28;100394.45190429688;;;8.9;82.34
44531;BME280;30240;47.418;0.700;2023-03-21T04:37:54;100389.73388671875;;;8.85;82.28
44531;BME280;30240;47.418;0.700;2023-03-21T04:40:19;100389.73388671875;;;8.85;82.28
44531;BME280;30240;47.418;0.700;2023-03-21T04:42:44;100385.07690429688;;;8.84;82.4
44531;BME280;30240;47.418;0.700;2023-03-21T04:45:09;100390.78979492188;;;8.88;82.57
44531;BME280;30240;47.418;0.700;2023-03-21T04:47:34;100394.17724609375;;;8.83;82.58
44531;BME280;30240;47.418;0.700;2023-03-21T04:49:58;100399.8291015625;;;8.77;82.58
44531;BME280;30240;47.418;0.700;2023-03-21T04:52:24;100399.8291015625;;;8.77;82.58
44531;BME280;30240;47.418;0.700;2023-03-21T04:54:49;100406.80541992188;;;8.85;82.63
44531;BME280;30240;47.418;0.700;2023-03-21T04:57:13;100409.28344726562;;;8.83;82.58
44531;BME280;30240;47.418;0.700;2023-03-21T04:59:39;100409.38110351562;;;8.79;82.58
44531;BME280;30240;47.418;0.700;2023-03-21T05:02:03;100413.47045898438;;;8.77;82.45
44531;BME280;30240;47.418;0.700;2023-03-21T05:04:28;100418.02978515625;;;8.77;82.5
44531;BME280;30240;47.418;0.700;2023-03-21T05:06:54;100418.02978515625;;;8.77;82.5
44531;BME280;30240;47.418;0.700;2023-03-21T05:09:19;100417.61474609375;;;8.8;82.45
44531;BME280;30240;47.418;0.700;2023-03-21T05:11:44;100422.49755859375;;;8.63;82.95
44531;BME280;30240;47.418;0.700;2023-03-21T05:14:12;100422.0458984375;;;8.57;83.28
44531;BME280;30240;47.418;0.700;2023-03-21T05:16:37;100427.685546875;;;8.65;83.56
44531;BME280;30240;47.418;0.700;2023-03-21T05:18:59;100427.685546875;;;8.65;83.56
44531;BME280;30240;47.418;0.700;2023-03-21T05:21:24;100421.42333984375;;;8.6;83.78
44531;BME280;30240;47.418;0.700;2023-03-21T05:23:49;100421.00219726562;;;8.57;83.79
44531;BME280;30240;47.418;0.700;2023-03-21T05:26:13;100426.42211914062;;;8.57;84.08
44531;BME280;30240;47.418;0.700;2023-03-21T05:28:38;100426.87377929688;;;8.52;84.08
44531;BME280;30240;47.418;0.700;2023-03-21T05:31:04;100426.87377929688;;;8.52;84.08
44531;BME280;30240;47.418;0.700;2023-03-21T05:33:30;100427.5146484375;;;8.6;84.03
44531;BME280;30240;47.418;0.700;2023-03-21T05:35:53;100429.638671875;;;8.57;84.2
44531;BME280;30240;47.418;0.700;2023-03-21T05:38:19;100426.42211914062;;;8.49;84.09
44531;BME280;30240;47.418;0.700;2023-03-21T05:40:45;100412.2314453125;;;8.48;84.52
44531;BME280;30240;47.418;0.700;2023-03-21T05:43:08;100412.2314453125;;;8.48;84.52
44531;BME280;30240;47.418;0.700;2023-03-21T05:45:33;100411.474609375;;;8.53;84.28
44531;BME280;30240;47.418;0.700;2023-03-21T05:47:58;100406.87255859375;;;8.53;84.39
44531;BME280;30240;47.418;0.700;2023-03-21T05:50:23;100393.32885742188;;;8.55;84.3
44531;BME280;30240;47.418;0.700;2023-03-21T05:52:48;100391.5283203125;;;8.44;84.5
44531;BME280;30240;47.418;0.700;2023-03-21T05:55:13;100391.5283203125;;;8.44;84.5
44531;BME280;30240;47.418;0.700;2023-03-21T05:57:39;100397.8759765625;;;8.32;84.83
44531;BME280;30240;47.418;0.700;2023-03-21T06:00:04;100401.84326171875;;;8.35;84.77
44531;BME280;30240;47.418;0.700;2023-03-21T06:02:28;100423.7060546875;;;8.24;84.98
44531;BME280;30240;47.418;0.700;2023-03-21T06:04:53;100418.86596679688;;;8.22;85.14
44531;BME280;30240;47.418;0.700;2023-03-21T06:07:18;100418.86596679688;;;8.22;85.14
44531;BME280;30240;47.418;0.700;2023-03-21T06:09:43;100427.5146484375;;;8.28;84.96
44531;BME280;30240;47.418;0.700;2023-03-21T06:12:10;100427.53295898438;;;8.31;84.84
44531;BME280;30240;47.418;0.700;2023-03-21T06:14:33;100427.93579101562;;;8.35;85.02
44531;BME280;30240;47.418;0.700;2023-03-21T06:16:58;100428.28979492188;;;8.32;84.95
44531;BME280;30240;47.418;0.700;2023-03-21T06:19:24;100428.28979492188;;;8.32;84.95
44531;BME280;30240;47.418;0.700;2023-03-21T06:21:48;100428.70483398438;;;8.39;85.09
44531;BME280;30240;47.418;0.700;2023-03-21T06:24:13;100428.31420898438;;;8.35;84.97
44531;BME280;30240;47.418;0.700;2023-03-21T06:26:38;100426.26342773438;;;8.39;84.95
44531;BME280;30240;47.418;0.700;2023-03-21T06:29:04;100423.5595703125;;;8.46;84.86
44531;BME280;30240;47.418;0.700;2023-03-21T06:31:28;100423.5595703125;;;8.46;84.86
44531;BME280;30240;47.418;0.700;2023-03-21T06:33:53;100421.95434570312;;;8.44;84.79
44531;BME280;30240;47.418;0.700;2023-03-21T06:36:19;100421.71020507812;;;8.46;84.76
44531;BME280;30240;47.418;0.700;2023-03-21T06:38:43;100413.58642578125;;;8.62;84.77
44531;BME280;30240;47.418;0.700;2023-03-21T06:41:09;100418.59130859375;;;8.59;84.99
44531;BME280;30240;47.418;0.700;2023-03-21T06:43:34;100413.90380859375;;;8.62;85.15
44531;BME280;30240;47.418;0.700;2023-03-21T06:45:59;100413.90380859375;;;8.62;85.15
44531;BME280;30240;47.418;0.700;2023-03-21T06:48:24;100415.78369140625;;;8.67;85.05
44531;BME280;30240;47.418;0.700;2023-03-21T06:50:49;100430.224609375;;;8.5;85.58
44531;BME280;30240;47.418;0.700;2023-03-21T06:53:14;100430.64575195312;;;8.56;85.58
44531;BME280;30240;47.418;0.700;2023-03-21T06:55:38;100440.03295898438;;;8.46;85.83
44531;BME280;30240;47.418;0.700;2023-03-21T06:58:03;100440.03295898438;;;8.46;85.83
44531;BME280;30240;47.418;0.700;2023-03-21T07:00:29;100432.28759765625;;;8.63;85.92
44531;BME280;30240;47.418;0.700;2023-03-21T07:02:53;100424.15771484375;;;8.84;85.29
44531;BME280;30240;47.418;0.700;2023-03-21T07:05:18;100438.77563476562;;;8.83;85.59
44531;BME280;30240;47.418;0.700;2023-03-21T07:07:43;100430.56030273438;;;8.7;85.46
44531;BME280;30240;47.418;0.700;2023-03-21T07:10:09;100430.56030273438;;;8.7;85.46
44531;BME280;30240;47.418;0.700;2023-03-21T07:12:34;100433.65478515625;;;8.91;85.24
44531;BME280;30240;47.418;0.700;2023-03-21T07:14:58;100428.31420898438;;;8.91;84.63
44531;BME280;30240;47.418;0.700;2023-03-21T07:17:23;100416.27197265625;;;8.91;84.96
44531;BME280;30240;47.418;0.700;2023-03-21T07:19:48;100403.32641601562;;;8.96;84.88
44531;BME280;30240;47.418;0.700;2023-03-21T07:22:13;100403.32641601562;;;8.96;84.88
44531;BME280;30240;47.418;0.700;2023-03-21T07:24:38;100389.31274414062;;;9.28;84.55
44531;BME280;30240;47.418;0.700;2023-03-21T07:27:03;100409.82666015625;;;9.07;84.54
44531;BME280;30240;47.418;0.700;2023-03-21T07:29:28;100416.70532226562;;;9.05;84.83
44531;BME280;30240;47.418;0.700;2023-03-21T07:31:53;100417.32788085938;;;9.15;84.58
44531;BME280;30240;47.418;0.700;2023-03-21T07:34:18;100417.32788085938;;;9.15;84.58
44531;BME280;30240;47.418;0.700;2023-03-21T07:36:43;100411.79809570312;;;9.31;84.08
44531;BME280;30240;47.418;0.700;2023-03-21T07:39:08;100425.92163085938;;;9.29;84.22
44531;BME280;30240;47.418;0.700;2023-03-21T07:41:33;100428.2470703125;;;9.32;84.23
44531;BME280;30240;47.418;0.700;2023-03-21T07:43:58;100415.1611328125;;;9.36;84.16
44531;BME280;30240;47.418;0.700;2023-03-21T07:46:23;100415.1611328125;;;9.36;84.16
44531;BME280;30240;47.418;0.700;2023-03-21T07:48:49;100415.41137695312;;;9.31;84.05
44531;BME280;30240;47.418;0.700;2023-03-21T07:51:13;100420.47729492188;;;9.4;84.19
44531;BME280;30240;47.418;0.700;2023-03-21T07:53:38;100426.13525390625;;;9.49;83.66
44531;BME280;30240;47.418;0.700;2023-03-21T07:56:04;100434.1064453125;;;9.57;83.49
44531;BME280;30240;47.418;0.700;2023-03-21T07:58:28;100434.1064453125;;;9.57;83.49
44531;BME280;30240;47.418;0.700;2023-03-21T08:00:54;100438.45825195312;;;9.6;83.54
44531;BME280;30240;47.418;0.700;2023-03-21T08:03:18;100435.96801757812;;;9.99;82.84
44531;BME280;30240;47.418;0.700;2023-03-21T08:05:44;100420.849609375;;;9.99;82.68
44531;BME280;30240;47.418;0.700;2023-03-21T08:08:09;100429.5166015625;;;9.88;83.01
44531;BME280;30240;47.418;0.700;2023-03-21T08:10:34;100442.63916015625;;;9.92;82.92
44531;BME280;30240;47.418;0.700;2023-03-21T08:12:58;100442.63916015625;;;9.92;82.92
44531;BME280;30240;47.418;0.700;2023-03-21T08:15:24;100436.73706054688;;;9.95;83.27
44531;BME280;30240;47.418;0.700;2023-03-21T08:17:49;100429.74853515625;;;9.85;82.74
44531;BME280;30240;47.418;0.700;2023-03-21T08:20:17;100434.35668945312;;;9.82;82.8
44531;BME280;30240;47.418;0.700;2023-03-21T08:22:39;100434.53369140625;;;10.02;82.74
44531;BME280;30240;47.418;0.700;2023-03-21T08:25:06;100434.53369140625;;;10.02;82.74
44531;BME280;30240;47.418;0.700;2023-03-21T08:27:28;100456.23168945312;;;10.09;82.93
44531;BME280;30240;47.418;0.700;2023-03-21T08:29:53;100466.59545898438;;;10.08;82.89
44531;BME280;30240;47.418;0.700;2023-03-21T08:32:18;100472.314453125;;;10.03;83.02
44531;BME280;30240;47.418;0.700;2023-03-21T08:34:44;100466.6259765625;;;9.98;83.38
44531;BME280;30240;47.418;0.700;2023-03-21T08:37:08;100466.6259765625;;;9.98;83.38
44531;BME280;30240;47.418;0.700;2023-03-21T08:39:33;100470.8251953125;;;9.98;83.73
44531;BME280;30240;47.418;0.700;2023-03-21T08:41:58;100472.314453125;;;9.99;83.75
44531;BME280;30240;47.418;0.700;2023-03-21T08:44:23;100483.87451171875;;;9.99;83.93
44531;BME280;30240;47.418;0.700;2023-03-21T08:46:48;100481.78100585938;;;9.95;83.8
44531;BME280;30240;47.418;0.700;2023-03-21T08:49:13;100481.78100585938;;;9.95;83.8
44531;BME280;30240;47.418;0.700;2023-03-21T08:51:38;100476.953125;;;10.25;83.45
44531;BME280;30240;47.418;0.700;2023-03-21T08:54:03;100464.20288085938;;;10.19;83.44
44531;BME280;30240;47.418;0.700;2023-03-21T08:56:28;100464.26391601562;;;10.05;83.52
44531;BME280;30240;47.418;0.700;2023-03-21T08:58:53;100464.33715820312;;;10.05;83.85
44531;BME280;30240;47.418;0.700;2023-03-21T09:01:18;100464.33715820312;;;10.05;83.85
44531;BME280;30240;47.418;0.700;2023-03-21T09:03:43;100472.63793945312;;;10.44;83.44
44531;BME280;30240;47.418;0.700;2023-03-21T09:06:09;100470.53833007812;;;10.41;83.1
44531;BME280;30240;47.418;0.700;2023-03-21T09:08:33;100473.6572265625;;;10.36;83.28
44531;BME280;30240;47.418;0.700;2023-03-21T09:10:59;100479.60815429688;;;10.39;83.83
44531;BME280;30240;47.418;0.700;2023-03-21T09:13:23;100479.60815429688;;;10.39;83.83
44531;BME280;30240;47.418;0.700;2023-03-21T09:15:49;100490.26489257812;;;10.46;83.53
44531;BME280;30240;47.418;0.700;2023-03-21T09:18:14;100477.5390625;;;10.51;83.53
44531;BME280;30240;47.418;0.700;2023-03-21T09:20:39;100468.43872070312;;;10.64;83.28
44531;BME280;30240;47.418;0.700;2023-03-21T09:23:03;100467.16918945312;;;10.5;83.48
44531;BME280;30240;47.418;0.700;2023-03-21T09:25:28;100467.16918945312;;;10.5;83.48
44531;BME280;30240;47.418;0.700;2023-03-21T09:27:53;100467.46215820312;;;10.39;83.82
44531;BME280;30240;47.418;0.700;2023-03-21T09:30:19;100467.7001953125;;;10.3;83.98
44531;BME280;30240;47.418;0.700;2023-03-21T09:32:44;100468.15795898438;;;10.41;83.83
44531;BME280;30240;47.418;0.700;2023-03-21T09:35:08;100464.65454101562;;;10.75;83.51
44531;BME280;30240;47.418;0.700;2023-03-21T09:37:33;100463.56811523438;;;10.96;82.93
44531;BME280;30240;47.418;0.700;2023-03-21T09:39:59;100463.56811523438;;;10.96;82.93
44531;BME280;30240;47.418;0.700;2023-03-21T09:42:30;100463.4521484375;;;10.95;83.1
44531;BME280;30240;47.418;0.700;2023-03-21T09:44:54;100462.13989257812;;;11.05;82.72
44531;BME280;30240;47.418;0.700;2023-03-21T09:47:16;100458.73413085938;;;11.37;82.62
44531;BME280;30240;47.418;0.700;2023-03-21T09:49:40;100443.59130859375;;;11.51;82.48
44531;BME280;30240;47.418;0.700;2023-03-21T09:52:12;100443.59130859375;;;11.51;82.48
44531;BME280;30240;47.418;0.700;2023-03-21T09:54:31;100446.08764648438;;;11.62;82.01
44531;BME280;30240;47.418;0.700;2023-03-21T09:56:55;100446.8017578125;;;11.79;82.04
44531;BME280;30240;47.418;0.700;2023-03-21T09:59:21;100445.27587890625;;;11.87;82.18
44531;BME280;30240;47.418;0.700;2023-03-21T10:01:45;100439.92309570312;;;12.75;80.26
44531;BME280;30240;47.418;0.700;2023-03-21T10:04:11;100439.92309570312;;;12.75;80.26
44531;BME280;30240;47.418;0.700;2023-03-21T10:06:35;100447.7783203125;;;12.46;81.3
44531;BME280;30240;47.418;0.700;2023-03-21T10:09:02;100445.53833007812;;;12.27;81.72
44531;BME280;30240;47.418;0.700;2023-03-21T10:11:26;100436.81030273438;;;12.35;81.53
44531;BME280;30240;47.418;0.700;2023-03-21T10:13:52;100432.5439453125;;;12.34;81.86
44531;BME280;30240;47.418;0.700;2023-03-21T10:16:15;100432.5439453125;;;12.34;81.86
44531;BME280;30240;47.418;0.700;2023-03-21T10:18:39;100446.6064453125;;;11.93;82.97
44531;BME280;30240;47.418;0.700;2023-03-21T10:21:04;100448.13842773438;;;11.94;83.38
44531;BME280;30240;47.418;0.700;2023-03-21T10:23:29;100451.58081054688;;;12.25;82.84
44531;BME280;30240;47.418;0.700;2023-03-21T10:25:55;100450.78125;;;12.24;82.31
44531;BME280;30240;47.418;0.700;2023-03-21T10:28:20;100450.78125;;;12.24;82.31
44531;BME280;30240;47.418;0.700;2023-03-21T10:30:45;100443.73168945312;;;12.7;82.38
44531;BME280;30240;47.418;0.700;2023-03-21T10:33:12;100445.84350585938;;;12.51;82.69
44531;BME280;30240;47.418;0.700;2023-03-21T10:35:34;100441.1376953125;;;12.4;82.64
44531;BME280;30240;47.418;0.700;2023-03-21T10:37:59;100439.501953125;;;12.99;81.98
44531;BME280;30240;47.418;0.700;2023-03-21T10:40:24;100439.501953125;;;12.99;81.98
44531;BME280;30240;47.418;0.700;2023-03-21T10:42:49;100442.46215820312;;;12.72;82.23
44531;BME280;30240;47.418;0.700;2023-03-21T10:45:16;100448.55346679688;;;13.21;81.77
44531;BME280;30240;47.418;0.700;2023-03-21T10:47:39;100458.92333984375;;;12.58;82.58